sensor_id;sensor_type;location;lat;lon;timestamp;P1;durP1;ratioP1;P2;durP2;ratioP2
52494;SDS011;38405;53.212;5.660;2022-08-19T00:00:29;11.07;;;8.32;;
52494;SDS011;38405;53.212;5.660;2022-08-19T00:02:54;22.30;;;9.73;;
52494;SDS011;38405;53.212;5.660;2022-08-19T00:05:21;15.45;;;9.50;;
52494;SDS011;38405;53.212;5.660;2022-08-19T00:07:47;12.85;;;8.95;;
52494;SDS011;38405;53.212;5.660;2022-08-19T00:10:14;19.40;;;8.68;;
52494;SDS011;38405;53.212;5.660;2022-08-19T00:12:41;16.42;;;9.85;;
52494;SDS011;38405;53.212;5.660;2022-08-19T00:15:09;17.92;;;9.07;;
52494;SDS011;38405;53.212;5.660;2022-08-19T00:17:41;16.00;;;9.20;;
52494;SDS011;38405;53.212;5.660;2022-08-19T00:20:08;14.45;;;9.27;;
52494;SDS011;38405;53.212;5.660;2022-08-19T00:22:37;11.20;;;8.60;;
52494;SDS011;38405;53.212;5.660;2022-08-19T00:25:03;12.60;;;8.82;;
52494;SDS011;38405;53.212;5.660;2022-08-19T00:27:30;20.35;;;10.00;;
52494;SDS011;38405;53.212;5.660;2022-08-19T00:29:56;13.20;;;9.55;;
52494;SDS011;38405;53.212;5.660;2022-08-19T00:32:23;16.95;;;9.75;;
52494;SDS011;38405;53.212;5.660;2022-08-19T00:34:50;15.23;;;9.55;;
52494;SDS011;38405;53.212;5.660;2022-08-19T00:37:19;16.17;;;9.45;;
52494;SDS011;38405;53.212;5.660;2022-08-19T00:39:47;25.92;;;10.52;;
52494;SDS011;38405;53.212;5.660;2022-08-19T00:42:13;18.80;;;10.73;;
52494;SDS011;38405;53.212;5.660;2022-08-19T00:44:40;22.38;;;11.77;;
52494;SDS011;38405;53.212;5.660;2022-08-19T00:47:06;21.05;;;12.10;;
52494;SDS011;38405;53.212;5.660;2022-08-19T00:49:36;17.48;;;11.52;;
52494;SDS011;38405;53.212;5.660;2022-08-19T00:52:14;22.60;;;11.63;;
52494;SDS011;38405;53.212;5.660;2022-08-19T00:54:43;21.00;;;11.50;;
52494;SDS011;38405;53.212;5.660;2022-08-19T00:57:13;18.17;;;12.02;;
52494;SDS011;38405;53.212;5.660;2022-08-19T00:59:42;18.67;;;11.55;;
52494;SDS011;38405;53.212;5.660;2022-08-19T01:02:12;18.25;;;11.50;;
52494;SDS011;38405;53.212;5.660;2022-08-19T01:04:40;18.70;;;11.77;;
52494;SDS011;38405;53.212;5.660;2022-08-19T01:07:05;22.80;;;11.15;;
52494;SDS011;38405;53.212;5.660;2022-08-19T01:09:32;15.25;;;11.57;;
52494;SDS011;38405;53.212;5.660;2022-08-19T01:11:58;20.85;;;12.07;;
52494;SDS011;38405;53.212;5.660;2022-08-19T01:14:23;17.60;;;11.02;;
52494;SDS011;38405;53.212;5.660;2022-08-19T01:16:50;22.80;;;11.57;;
52494;SDS011;38405;53.212;5.660;2022-08-19T01:19:26;19.35;;;11.55;;
52494;SDS011;38405;53.212;5.660;2022-08-19T01:22:01;20.15;;;12.05;;
52494;SDS011;38405;53.212;5.660;2022-08-19T01:24:30;23.15;;;12.23;;
52494;SDS011;38405;53.212;5.660;2022-08-19T01:26:56;22.45;;;12.70;;
52494;SDS011;38405;53.212;5.660;2022-08-19T01:29:22;20.30;;;12.02;;
52494;SDS011;38405;53.212;5.660;2022-08-19T01:31:48;26.05;;;13.30;;
52494;SDS011;38405;53.212;5.660;2022-08-19T01:34:17;24.30;;;13.20;;
52494;SDS011;38405;53.212;5.660;2022-08-19T01:36:44;19.48;;;12.50;;
52494;SDS011;38405;53.212;5.660;2022-08-19T01:39:13;23.05;;;12.23;;
52494;SDS011;38405;53.212;5.660;2022-08-19T01:41:45;21.50;;;11.93;;
52494;SDS011;38405;53.212;5.660;2022-08-19T01:44:11;25.40;;;13.27;;
52494;SDS011;38405;53.212;5.660;2022-08-19T01:46:37;29.65;;;12.90;;
52494;SDS011;38405;53.212;5.660;2022-08-19T01:49:03;20.10;;;11.73;;
52494;SDS011;38405;53.212;5.660;2022-08-19T01:51:31;21.42;;;11.75;;
52494;SDS011;38405;53.212;5.660;2022-08-19T01:53:57;23.27;;;13.63;;
52494;SDS011;38405;53.212;5.660;2022-08-19T01:56:24;26.20;;;13.68;;
52494;SDS011;38405;53.212;5.660;2022-08-19T01:58:55;25.75;;;13.90;;
52494;SDS011;38405;53.212;5.660;2022-08-19T02:01:28;22.15;;;12.73;;
52494;SDS011;38405;53.212;5.660;2022-08-19T02:03:56;24.50;;;12.82;;
52494;SDS011;38405;53.212;5.660;2022-08-19T02:06:23;23.10;;;13.40;;
52494;SDS011;38405;53.212;5.660;2022-08-19T02:08:49;24.52;;;12.45;;
52494;SDS011;38405;53.212;5.660;2022-08-19T02:11:23;23.13;;;12.50;;
52494;SDS011;38405;53.212;5.660;2022-08-19T02:13:53;21.23;;;11.60;;
52494;SDS011;38405;53.212;5.660;2022-08-19T02:16:20;19.92;;;11.27;;
52494;SDS011;38405;53.212;5.660;2022-08-19T02:18:46;18.85;;;10.40;;
52494;SDS011;38405;53.212;5.660;2022-08-19T02:21:19;17.83;;;10.73;;
52494;SDS011;38405;53.212;5.660;2022-08-19T02:23:46;18.80;;;11.30;;
52494;SDS011;38405;53.212;5.660;2022-08-19T02:26:12;29.15;;;12.27;;
52494;SDS011;38405;53.212;5.660;2022-08-19T02:28:38;23.48;;;11.52;;
52494;SDS011;38405;53.212;5.660;2022-08-19T02:31:08;20.95;;;11.20;;
52494;SDS011;38405;53.212;5.660;2022-08-19T02:33:35;27.92;;;11.85;;
52494;SDS011;38405;53.212;5.660;2022-08-19T02:36:02;27.48;;;13.40;;
52494;SDS011;38405;53.212;5.660;2022-08-19T02:38:29;24.00;;;13.50;;
52494;SDS011;38405;53.212;5.660;2022-08-19T02:40:59;23.17;;;11.98;;
52494;SDS011;38405;53.212;5.660;2022-08-19T02:43:27;26.52;;;12.15;;
52494;SDS011;38405;53.212;5.660;2022-08-19T02:45:54;19.85;;;10.90;;
52494;SDS011;38405;53.212;5.660;2022-08-19T02:48:21;12.90;;;8.68;;
52494;SDS011;38405;53.212;5.660;2022-08-19T02:50:49;16.58;;;8.52;;
52494;SDS011;38405;53.212;5.660;2022-08-19T02:53:21;17.23;;;8.18;;
52494;SDS011;38405;53.212;5.660;2022-08-19T02:55:48;11.20;;;7.90;;
52494;SDS011;38405;53.212;5.660;2022-08-19T02:58:14;19.65;;;8.80;;
52494;SDS011;38405;53.212;5.660;2022-08-19T03:00:45;22.38;;;9.27;;
52494;SDS011;38405;53.212;5.660;2022-08-19T03:03:13;16.98;;;9.30;;
52494;SDS011;38405;53.212;5.660;2022-08-19T03:05:39;12.30;;;9.20;;
52494;SDS011;38405;53.212;5.660;2022-08-19T03:08:05;22.55;;;10.07;;
52494;SDS011;38405;53.212;5.660;2022-08-19T03:10:39;18.80;;;10.23;;
52494;SDS011;38405;53.212;5.660;2022-08-19T03:13:08;17.52;;;9.68;;
52494;SDS011;38405;53.212;5.660;2022-08-19T03:15:38;24.02;;;10.10;;
52494;SDS011;38405;53.212;5.660;2022-08-19T03:18:04;18.50;;;10.05;;
52494;SDS011;38405;53.212;5.660;2022-08-19T03:20:30;23.48;;;10.88;;
52494;SDS011;38405;53.212;5.660;2022-08-19T03:22:56;22.77;;;11.05;;
52494;SDS011;38405;53.212;5.660;2022-08-19T03:25:22;21.55;;;11.95;;
52494;SDS011;38405;53.212;5.660;2022-08-19T03:27:48;35.63;;;13.00;;
52494;SDS011;38405;53.212;5.660;2022-08-19T03:30:13;26.30;;;12.43;;
52494;SDS011;38405;53.212;5.660;2022-08-19T03:32:39;27.80;;;13.13;;
52494;SDS011;38405;53.212;5.660;2022-08-19T03:35:05;26.13;;;14.15;;
52494;SDS011;38405;53.212;5.660;2022-08-19T03:37:31;31.27;;;14.32;;
52494;SDS011;38405;53.212;5.660;2022-08-19T03:39:57;27.77;;;14.65;;
52494;SDS011;38405;53.212;5.660;2022-08-19T03:42:23;25.88;;;13.10;;
52494;SDS011;38405;53.212;5.660;2022-08-19T03:44:49;25.48;;;12.30;;
52494;SDS011;38405;53.212;5.660;2022-08-19T03:47:15;25.85;;;12.95;;
52494;SDS011;38405;53.212;5.660;2022-08-19T03:49:41;26.92;;;12.68;;
52494;SDS011;38405;53.212;5.660;2022-08-19T03:52:07;30.75;;;13.35;;
52494;SDS011;38405;53.212;5.660;2022-08-19T03:54:33;27.92;;;12.63;;
52494;SDS011;38405;53.212;5.660;2022-08-19T03:56:59;30.77;;;12.68;;
52494;SDS011;38405;53.212;5.660;2022-08-19T03:59:26;29.15;;;12.68;;
52494;SDS011;38405;53.212;5.660;2022-08-19T04:01:57;21.42;;;12.40;;
52494;SDS011;38405;53.212;5.660;2022-08-19T04:04:26;21.85;;;11.60;;
52494;SDS011;38405;53.212;5.660;2022-08-19T04:06:51;26.33;;;10.80;;
52494;SDS011;38405;53.212;5.660;2022-08-19T04:09:18;23.45;;;11.80;;
52494;SDS011;38405;53.212;5.660;2022-08-19T04:11:46;25.27;;;11.90;;
52494;SDS011;38405;53.212;5.660;2022-08-19T04:14:15;29.58;;;13.07;;
52494;SDS011;38405;53.212;5.660;2022-08-19T04:16:44;22.40;;;11.68;;
52494;SDS011;38405;53.212;5.660;2022-08-19T04:19:11;34.92;;;13.02;;
52494;SDS011;38405;53.212;5.660;2022-08-19T04:21:37;32.42;;;13.98;;
52494;SDS011;38405;53.212;5.660;2022-08-19T04:24:03;33.17;;;14.82;;
52494;SDS011;38405;53.212;5.660;2022-08-19T04:26:30;30.92;;;15.10;;
52494;SDS011;38405;53.212;5.660;2022-08-19T04:29:01;29.17;;;14.77;;
52494;SDS011;38405;53.212;5.660;2022-08-19T04:31:30;34.35;;;14.45;;
52494;SDS011;38405;53.212;5.660;2022-08-19T04:33:58;32.92;;;15.75;;
52494;SDS011;38405;53.212;5.660;2022-08-19T04:36:25;35.53;;;14.75;;
52494;SDS011;38405;53.212;5.660;2022-08-19T04:38:54;32.58;;;15.05;;
52494;SDS011;38405;53.212;5.660;2022-08-19T04:41:22;34.38;;;14.77;;
52494;SDS011;38405;53.212;5.660;2022-08-19T04:44:06;34.08;;;15.77;;
52494;SDS011;38405;53.212;5.660;2022-08-19T04:46:32;36.67;;;15.68;;
52494;SDS011;38405;53.212;5.660;2022-08-19T04:48:58;34.20;;;15.23;;
52494;SDS011;38405;53.212;5.660;2022-08-19T04:51:24;34.83;;;16.33;;
52494;SDS011;38405;53.212;5.660;2022-08-19T04:53:50;38.08;;;16.42;;
52494;SDS011;38405;53.212;5.660;2022-08-19T04:56:17;42.70;;;17.60;;
52494;SDS011;38405;53.212;5.660;2022-08-19T04:58:46;49.30;;;18.00;;
52494;SDS011;38405;53.212;5.660;2022-08-19T05:01:13;39.03;;;16.13;;
52494;SDS011;38405;53.212;5.660;2022-08-19T05:03:42;36.58;;;16.48;;
52494;SDS011;38405;53.212;5.660;2022-08-19T05:06:09;39.90;;;16.02;;
52494;SDS011;38405;53.212;5.660;2022-08-19T05:08:40;45.80;;;18.30;;
52494;SDS011;38405;53.212;5.660;2022-08-19T05:11:12;38.08;;;18.35;;
52494;SDS011;38405;53.212;5.660;2022-08-19T05:13:40;38.55;;;17.02;;
52494;SDS011;38405;53.212;5.660;2022-08-19T05:16:07;35.60;;;17.27;;
52494;SDS011;38405;53.212;5.660;2022-08-19T05:18:34;38.15;;;16.77;;
52494;SDS011;38405;53.212;5.660;2022-08-19T05:21:19;35.45;;;17.00;;
52494;SDS011;38405;53.212;5.660;2022-08-19T05:24:04;38.90;;;17.25;;
52494;SDS011;38405;53.212;5.660;2022-08-19T05:26:34;36.42;;;17.63;;
52494;SDS011;38405;53.212;5.660;2022-08-19T05:29:01;37.03;;;16.88;;
52494;SDS011;38405;53.212;5.660;2022-08-19T05:31:28;33.22;;;17.05;;
52494;SDS011;38405;53.212;5.660;2022-08-19T05:33:54;36.67;;;16.77;;
52494;SDS011;38405;53.212;5.660;2022-08-19T05:36:20;36.63;;;17.35;;
52494;SDS011;38405;53.212;5.660;2022-08-19T05:38:46;37.20;;;17.73;;
52494;SDS011;38405;53.212;5.660;2022-08-19T05:41:13;40.33;;;18.60;;
52494;SDS011;38405;53.212;5.660;2022-08-19T05:43:40;36.80;;;18.98;;
52494;SDS011;38405;53.212;5.660;2022-08-19T05:46:06;38.28;;;17.92;;
52494;SDS011;38405;53.212;5.660;2022-08-19T05:48:33;31.92;;;17.83;;
52494;SDS011;38405;53.212;5.660;2022-08-19T05:51:03;34.90;;;17.95;;
52494;SDS011;38405;53.212;5.660;2022-08-19T05:53:33;42.20;;;18.52;;
52494;SDS011;38405;53.212;5.660;2022-08-19T05:56:06;31.60;;;17.58;;
52494;SDS011;38405;53.212;5.660;2022-08-19T05:58:33;34.65;;;17.95;;
52494;SDS011;38405;53.212;5.660;2022-08-19T06:00:59;33.15;;;18.85;;
52494;SDS011;38405;53.212;5.660;2022-08-19T06:03:29;39.88;;;18.48;;
52494;SDS011;38405;53.212;5.660;2022-08-19T06:05:56;31.38;;;18.60;;
52494;SDS011;38405;53.212;5.660;2022-08-19T06:08:23;34.78;;;17.98;;
52494;SDS011;38405;53.212;5.660;2022-08-19T06:10:49;33.58;;;17.92;;
52494;SDS011;38405;53.212;5.660;2022-08-19T06:13:14;35.53;;;18.35;;
52494;SDS011;38405;53.212;5.660;2022-08-19T06:15:40;31.13;;;17.38;;
52494;SDS011;38405;53.212;5.660;2022-08-19T06:18:08;28.88;;;16.77;;
52494;SDS011;38405;53.212;5.660;2022-08-19T06:20:34;25.73;;;16.70;;
52494;SDS011;38405;53.212;5.660;2022-08-19T06:23:00;22.73;;;16.40;;
52494;SDS011;38405;53.212;5.660;2022-08-19T06:25:25;23.13;;;16.27;;
52494;SDS011;38405;53.212;5.660;2022-08-19T06:27:51;22.48;;;16.10;;
52494;SDS011;38405;53.212;5.660;2022-08-19T06:30:17;21.27;;;15.00;;
52494;SDS011;38405;53.212;5.660;2022-08-19T06:32:43;23.23;;;15.05;;
52494;SDS011;38405;53.212;5.660;2022-08-19T06:35:09;17.33;;;13.55;;
52494;SDS011;38405;53.212;5.660;2022-08-19T06:37:35;18.73;;;14.13;;
52494;SDS011;38405;53.212;5.660;2022-08-19T06:40:02;19.73;;;14.10;;
52494;SDS011;38405;53.212;5.660;2022-08-19T06:42:27;15.63;;;13.38;;
52494;SDS011;38405;53.212;5.660;2022-08-19T06:44:53;17.60;;;13.45;;
52494;SDS011;38405;53.212;5.660;2022-08-19T06:47:20;17.35;;;13.52;;
52494;SDS011;38405;53.212;5.660;2022-08-19T06:49:46;26.35;;;15.02;;
52494;SDS011;38405;53.212;5.660;2022-08-19T06:52:12;19.88;;;13.50;;
52494;SDS011;38405;53.212;5.660;2022-08-19T06:54:39;17.60;;;13.68;;
52494;SDS011;38405;53.212;5.660;2022-08-19T06:57:06;16.63;;;13.00;;
52494;SDS011;38405;53.212;5.660;2022-08-19T06:59:34;13.68;;;11.70;;
52494;SDS011;38405;53.212;5.660;2022-08-19T07:02:01;17.90;;;11.88;;
52494;SDS011;38405;53.212;5.660;2022-08-19T07:04:30;14.90;;;12.25;;
52494;SDS011;38405;53.212;5.660;2022-08-19T07:06:58;14.98;;;12.32;;
52494;SDS011;38405;53.212;5.660;2022-08-19T07:09:27;12.45;;;11.25;;
52494;SDS011;38405;53.212;5.660;2022-08-19T07:11:53;12.40;;;11.10;;
52494;SDS011;38405;53.212;5.660;2022-08-19T07:14:21;15.30;;;11.45;;
52494;SDS011;38405;53.212;5.660;2022-08-19T07:16:49;13.55;;;11.20;;
52494;SDS011;38405;53.212;5.660;2022-08-19T07:19:17;12.27;;;10.88;;
52494;SDS011;38405;53.212;5.660;2022-08-19T07:21:44;14.55;;;10.85;;
52494;SDS011;38405;53.212;5.660;2022-08-19T07:24:11;11.88;;;10.35;;
52494;SDS011;38405;53.212;5.660;2022-08-19T07:26:39;12.85;;;10.68;;
52494;SDS011;38405;53.212;5.660;2022-08-19T07:29:06;16.13;;;11.15;;
52494;SDS011;38405;53.212;5.660;2022-08-19T07:31:32;12.60;;;10.98;;
52494;SDS011;38405;53.212;5.660;2022-08-19T07:34:06;16.20;;;11.35;;
52494;SDS011;38405;53.212;5.660;2022-08-19T07:36:34;14.05;;;10.82;;
52494;SDS011;38405;53.212;5.660;2022-08-19T07:39:03;14.57;;;12.57;;
52494;SDS011;38405;53.212;5.660;2022-08-19T07:41:32;14.05;;;12.65;;
52494;SDS011;38405;53.212;5.660;2022-08-19T07:44:00;16.38;;;13.27;;
52494;SDS011;38405;53.212;5.660;2022-08-19T07:46:28;14.50;;;13.00;;
52494;SDS011;38405;53.212;5.660;2022-08-19T07:48:57;17.42;;;13.27;;
52494;SDS011;38405;53.212;5.660;2022-08-19T07:51:23;14.90;;;12.63;;
52494;SDS011;38405;53.212;5.660;2022-08-19T07:53:49;17.25;;;14.35;;
52494;SDS011;38405;53.212;5.660;2022-08-19T07:56:16;17.35;;;14.07;;
52494;SDS011;38405;53.212;5.660;2022-08-19T07:58:44;18.70;;;14.95;;
52494;SDS011;38405;53.212;5.660;2022-08-19T08:01:12;19.35;;;15.60;;
52494;SDS011;38405;53.212;5.660;2022-08-19T08:03:44;26.15;;;16.00;;
52494;SDS011;38405;53.212;5.660;2022-08-19T08:06:28;18.48;;;15.43;;
52494;SDS011;38405;53.212;5.660;2022-08-19T08:09:14;16.75;;;14.80;;
52494;SDS011;38405;53.212;5.660;2022-08-19T08:11:49;22.35;;;15.13;;
52494;SDS011;38405;53.212;5.660;2022-08-19T08:14:22;16.63;;;13.20;;
52494;SDS011;38405;53.212;5.660;2022-08-19T08:16:50;19.33;;;13.55;;
52494;SDS011;38405;53.212;5.660;2022-08-19T08:19:20;18.58;;;14.23;;
52494;SDS011;38405;53.212;5.660;2022-08-19T08:21:47;19.23;;;14.88;;
52494;SDS011;38405;53.212;5.660;2022-08-19T08:24:13;19.80;;;15.50;;
52494;SDS011;38405;53.212;5.660;2022-08-19T08:26:40;19.92;;;14.32;;
52494;SDS011;38405;53.212;5.660;2022-08-19T08:29:06;20.52;;;14.40;;
52494;SDS011;38405;53.212;5.660;2022-08-19T08:31:35;14.32;;;11.70;;
52494;SDS011;38405;53.212;5.660;2022-08-19T08:34:01;13.55;;;11.18;;
52494;SDS011;38405;53.212;5.660;2022-08-19T08:36:27;16.38;;;12.40;;
52494;SDS011;38405;53.212;5.660;2022-08-19T08:38:53;16.63;;;13.85;;
52494;SDS011;38405;53.212;5.660;2022-08-19T08:41:30;16.23;;;13.07;;
52494;SDS011;38405;53.212;5.660;2022-08-19T08:44:02;21.98;;;13.18;;
52494;SDS011;38405;53.212;5.660;2022-08-19T08:52:04;15.50;;;10.85;;
52494;SDS011;38405;53.212;5.660;2022-08-19T08:54:33;14.80;;;9.50;;
52494;SDS011;38405;53.212;5.660;2022-08-19T08:57:03;17.83;;;10.55;;
52494;SDS011;38405;53.212;5.660;2022-08-19T08:59:38;16.92;;;10.40;;
52494;SDS011;38405;53.212;5.660;2022-08-19T09:02:06;16.65;;;10.65;;
52494;SDS011;38405;53.212;5.660;2022-08-19T09:04:36;15.88;;;9.88;;
52494;SDS011;38405;53.212;5.660;2022-08-19T09:07:23;21.70;;;10.65;;
52494;SDS011;38405;53.212;5.660;2022-08-19T09:09:52;15.30;;;9.98;;
52494;SDS011;38405;53.212;5.660;2022-08-19T09:12:25;17.38;;;9.98;;
52494;SDS011;38405;53.212;5.660;2022-08-19T09:15:15;14.27;;;10.82;;
52494;SDS011;38405;53.212;5.660;2022-08-19T09:17:43;15.68;;;10.07;;
52494;SDS011;38405;53.212;5.660;2022-08-19T09:22:36;13.77;;;8.57;;
52494;SDS011;38405;53.212;5.660;2022-08-19T09:25:02;13.27;;;8.05;;
52494;SDS011;38405;53.212;5.660;2022-08-19T09:27:30;22.17;;;9.68;;
52494;SDS011;38405;53.212;5.660;2022-08-19T09:29:56;20.48;;;8.48;;
52494;SDS011;38405;53.212;5.660;2022-08-19T09:32:22;15.63;;;8.77;;
52494;SDS011;38405;53.212;5.660;2022-08-19T09:34:49;13.25;;;8.07;;
52494;SDS011;38405;53.212;5.660;2022-08-19T09:37:14;17.17;;;8.68;;
52494;SDS011;38405;53.212;5.660;2022-08-19T09:39:40;20.05;;;9.65;;
52494;SDS011;38405;53.212;5.660;2022-08-19T09:42:07;19.58;;;9.15;;
52494;SDS011;38405;53.212;5.660;2022-08-19T09:44:39;13.32;;;8.90;;
52494;SDS011;38405;53.212;5.660;2022-08-19T09:47:05;13.73;;;9.68;;
52494;SDS011;38405;53.212;5.660;2022-08-19T09:49:30;15.55;;;7.93;;
52494;SDS011;38405;53.212;5.660;2022-08-19T09:51:56;19.48;;;8.13;;
52494;SDS011;38405;53.212;5.660;2022-08-19T09:54:22;16.67;;;7.53;;
52494;SDS011;38405;53.212;5.660;2022-08-19T09:56:48;13.27;;;7.50;;
52494;SDS011;38405;53.212;5.660;2022-08-19T09:59:14;11.40;;;7.40;;
52494;SDS011;38405;53.212;5.660;2022-08-19T10:01:40;13.18;;;6.82;;
52494;SDS011;38405;53.212;5.660;2022-08-19T10:04:06;12.63;;;6.95;;
52494;SDS011;38405;53.212;5.660;2022-08-19T10:06:35;14.20;;;6.70;;
52494;SDS011;38405;53.212;5.660;2022-08-19T10:09:03;14.05;;;6.97;;
52494;SDS011;38405;53.212;5.660;2022-08-19T10:11:31;10.35;;;6.75;;
52494;SDS011;38405;53.212;5.660;2022-08-19T10:13:57;12.32;;;7.15;;
52494;SDS011;38405;53.212;5.660;2022-08-19T10:16:24;13.38;;;8.27;;
52494;SDS011;38405;53.212;5.660;2022-08-19T10:18:50;9.88;;;6.80;;
52494;SDS011;38405;53.212;5.660;2022-08-19T10:21:18;14.10;;;7.13;;
52494;SDS011;38405;53.212;5.660;2022-08-19T10:23:46;9.82;;;5.80;;
52494;SDS011;38405;53.212;5.660;2022-08-19T10:26:14;11.02;;;5.93;;
52494;SDS011;38405;53.212;5.660;2022-08-19T10:29:01;11.20;;;6.07;;
52494;SDS011;38405;53.212;5.660;2022-08-19T10:31:28;9.82;;;6.88;;
52494;SDS011;38405;53.212;5.660;2022-08-19T10:33:56;9.20;;;6.70;;
52494;SDS011;38405;53.212;5.660;2022-08-19T10:36:24;15.13;;;7.05;;
52494;SDS011;38405;53.212;5.660;2022-08-19T10:38:52;10.48;;;6.72;;
52494;SDS011;38405;53.212;5.660;2022-08-19T10:41:22;13.05;;;6.95;;
52494;SDS011;38405;53.212;5.660;2022-08-19T10:43:50;11.45;;;7.15;;
52494;SDS011;38405;53.212;5.660;2022-08-19T10:46:22;12.32;;;6.82;;
52494;SDS011;38405;53.212;5.660;2022-08-19T10:48:48;11.13;;;6.55;;
52494;SDS011;38405;53.212;5.660;2022-08-19T10:51:14;10.80;;;7.28;;
52494;SDS011;38405;53.212;5.660;2022-08-19T10:53:59;10.13;;;5.90;;
52494;SDS011;38405;53.212;5.660;2022-08-19T10:56:25;12.65;;;6.32;;
52494;SDS011;38405;53.212;5.660;2022-08-19T10:59:10;9.73;;;5.90;;
52494;SDS011;38405;53.212;5.660;2022-08-19T11:01:38;15.25;;;6.60;;
52494;SDS011;38405;53.212;5.660;2022-08-19T11:04:04;10.93;;;6.25;;
52494;SDS011;38405;53.212;5.660;2022-08-19T11:06:33;10.48;;;5.80;;
52494;SDS011;38405;53.212;5.660;2022-08-19T11:08:59;7.07;;;4.53;;
52494;SDS011;38405;53.212;5.660;2022-08-19T11:11:25;11.35;;;6.05;;
52494;SDS011;38405;53.212;5.660;2022-08-19T11:13:51;9.13;;;5.70;;
52494;SDS011;38405;53.212;5.660;2022-08-19T11:16:18;10.13;;;4.45;;
52494;SDS011;38405;53.212;5.660;2022-08-19T11:18:48;8.13;;;5.00;;
52494;SDS011;38405;53.212;5.660;2022-08-19T11:21:20;8.25;;;5.20;;
52494;SDS011;38405;53.212;5.660;2022-08-19T11:23:49;8.13;;;5.05;;
52494;SDS011;38405;53.212;5.660;2022-08-19T11:26:17;10.70;;;5.30;;
52494;SDS011;38405;53.212;5.660;2022-08-19T11:28:45;7.82;;;5.38;;
52494;SDS011;38405;53.212;5.660;2022-08-19T11:31:11;7.88;;;5.43;;
52494;SDS011;38405;53.212;5.660;2022-08-19T11:33:42;6.13;;;4.40;;
52494;SDS011;38405;53.212;5.660;2022-08-19T11:36:08;7.78;;;3.58;;
52494;SDS011;38405;53.212;5.660;2022-08-19T11:38:35;6.70;;;3.30;;
52494;SDS011;38405;53.212;5.660;2022-08-19T11:41:02;7.13;;;4.13;;
52494;SDS011;38405;53.212;5.660;2022-08-19T11:43:30;7.25;;;4.80;;
52494;SDS011;38405;53.212;5.660;2022-08-19T11:45:56;14.52;;;4.70;;
52494;SDS011;38405;53.212;5.660;2022-08-19T11:48:22;6.70;;;4.50;;
52494;SDS011;38405;53.212;5.660;2022-08-19T11:50:50;8.48;;;4.78;;
52494;SDS011;38405;53.212;5.660;2022-08-19T11:53:18;8.73;;;5.03;;
52494;SDS011;38405;53.212;5.660;2022-08-19T11:55:45;16.17;;;6.00;;
52494;SDS011;38405;53.212;5.660;2022-08-19T11:58:12;8.32;;;5.18;;
52494;SDS011;38405;53.212;5.660;2022-08-19T12:00:39;11.32;;;5.57;;
52494;SDS011;38405;53.212;5.660;2022-08-19T12:03:05;9.65;;;5.30;;
52494;SDS011;38405;53.212;5.660;2022-08-19T12:05:31;9.02;;;5.40;;
52494;SDS011;38405;53.212;5.660;2022-08-19T12:07:57;9.40;;;5.45;;
52494;SDS011;38405;53.212;5.660;2022-08-19T12:10:23;9.82;;;6.30;;
52494;SDS011;38405;53.212;5.660;2022-08-19T12:12:49;13.10;;;5.93;;
52494;SDS011;38405;53.212;5.660;2022-08-19T12:15:15;10.00;;;5.80;;
52494;SDS011;38405;53.212;5.660;2022-08-19T12:17:41;8.32;;;6.00;;
52494;SDS011;38405;53.212;5.660;2022-08-19T12:20:08;11.05;;;7.45;;
52494;SDS011;38405;53.212;5.660;2022-08-19T12:22:38;13.35;;;7.97;;
52494;SDS011;38405;53.212;5.660;2022-08-19T12:27:35;11.73;;;7.78;;
52494;SDS011;38405;53.212;5.660;2022-08-19T12:30:01;13.80;;;8.45;;
52494;SDS011;38405;53.212;5.660;2022-08-19T12:32:28;10.35;;;8.05;;
52494;SDS011;38405;53.212;5.660;2022-08-19T12:34:54;10.15;;;6.57;;
52494;SDS011;38405;53.212;5.660;2022-08-19T12:37:20;9.95;;;6.95;;
52494;SDS011;38405;53.212;5.660;2022-08-19T12:39:46;11.32;;;6.63;;
52494;SDS011;38405;53.212;5.660;2022-08-19T12:42:12;13.02;;;7.18;;
52494;SDS011;38405;53.212;5.660;2022-08-19T12:44:39;13.23;;;7.75;;
52494;SDS011;38405;53.212;5.660;2022-08-19T12:47:06;13.52;;;7.07;;
52494;SDS011;38405;53.212;5.660;2022-08-19T12:49:33;12.32;;;6.80;;
52494;SDS011;38405;53.212;5.660;2022-08-19T12:52:01;8.65;;;6.90;;
52494;SDS011;38405;53.212;5.660;2022-08-19T12:54:28;9.55;;;5.78;;
52494;SDS011;38405;53.212;5.660;2022-08-19T12:56:55;12.02;;;8.15;;
52494;SDS011;38405;53.212;5.660;2022-08-19T12:59:24;14.90;;;8.63;;
52494;SDS011;38405;53.212;5.660;2022-08-19T13:01:51;10.77;;;7.65;;
52494;SDS011;38405;53.212;5.660;2022-08-19T13:04:16;22.98;;;7.60;;
52494;SDS011;38405;53.212;5.660;2022-08-19T13:06:42;13.65;;;8.15;;
52494;SDS011;38405;53.212;5.660;2022-08-19T13:09:08;8.43;;;7.63;;
52494;SDS011;38405;53.212;5.660;2022-08-19T13:11:34;8.50;;;6.75;;
52494;SDS011;38405;53.212;5.660;2022-08-19T13:14:01;7.50;;;5.72;;
52494;SDS011;38405;53.212;5.660;2022-08-19T13:16:28;11.70;;;6.57;;
52494;SDS011;38405;53.212;5.660;2022-08-19T13:18:55;10.70;;;7.25;;
52494;SDS011;38405;53.212;5.660;2022-08-19T13:21:22;10.30;;;6.90;;
52494;SDS011;38405;53.212;5.660;2022-08-19T13:23:50;10.80;;;6.50;;
52494;SDS011;38405;53.212;5.660;2022-08-19T13:26:16;11.77;;;7.47;;
52494;SDS011;38405;53.212;5.660;2022-08-19T13:28:43;6.30;;;5.40;;
52494;SDS011;38405;53.212;5.660;2022-08-19T13:31:29;7.85;;;6.35;;
52494;SDS011;38405;53.212;5.660;2022-08-19T13:34:16;8.13;;;5.50;;
52494;SDS011;38405;53.212;5.660;2022-08-19T13:36:44;8.90;;;4.95;;
52494;SDS011;38405;53.212;5.660;2022-08-19T13:39:10;10.50;;;5.10;;
52494;SDS011;38405;53.212;5.660;2022-08-19T13:41:36;7.70;;;5.20;;
52494;SDS011;38405;53.212;5.660;2022-08-19T13:44:08;9.90;;;6.03;;
52494;SDS011;38405;53.212;5.660;2022-08-19T13:46:33;8.57;;;5.18;;
52494;SDS011;38405;53.212;5.660;2022-08-19T13:48:59;7.57;;;5.32;;
52494;SDS011;38405;53.212;5.660;2022-08-19T13:51:24;7.45;;;5.30;;
52494;SDS011;38405;53.212;5.660;2022-08-19T13:53:50;8.07;;;4.85;;
52494;SDS011;38405;53.212;5.660;2022-08-19T13:56:16;13.75;;;6.47;;
52494;SDS011;38405;53.212;5.660;2022-08-19T13:58:44;11.63;;;5.82;;
52494;SDS011;38405;53.212;5.660;2022-08-19T14:01:10;9.52;;;5.95;;
52494;SDS011;38405;53.212;5.660;2022-08-19T14:03:36;7.28;;;4.40;;
52494;SDS011;38405;53.212;5.660;2022-08-19T14:06:02;6.88;;;3.40;;
52494;SDS011;38405;53.212;5.660;2022-08-19T14:08:28;5.57;;;3.78;;
52494;SDS011;38405;53.212;5.660;2022-08-19T14:10:57;5.55;;;3.97;;
52494;SDS011;38405;53.212;5.660;2022-08-19T14:13:23;7.07;;;4.03;;
52494;SDS011;38405;53.212;5.660;2022-08-19T14:15:49;5.20;;;3.65;;
52494;SDS011;38405;53.212;5.660;2022-08-19T14:18:16;5.57;;;3.88;;
52494;SDS011;38405;53.212;5.660;2022-08-19T14:20:43;3.55;;;3.25;;
52494;SDS011;38405;53.212;5.660;2022-08-19T14:23:09;3.60;;;3.20;;
52494;SDS011;38405;53.212;5.660;2022-08-19T14:25:37;6.35;;;3.88;;
52494;SDS011;38405;53.212;5.660;2022-08-19T14:28:03;5.28;;;3.80;;
52494;SDS011;38405;53.212;5.660;2022-08-19T14:30:29;9.02;;;5.95;;
52494;SDS011;38405;53.212;5.660;2022-08-19T14:32:57;5.97;;;5.10;;
52494;SDS011;38405;53.212;5.660;2022-08-19T14:35:24;7.95;;;4.78;;
52494;SDS011;38405;53.212;5.660;2022-08-19T14:37:51;5.50;;;4.85;;
52494;SDS011;38405;53.212;5.660;2022-08-19T14:40:20;7.85;;;5.20;;
52494;SDS011;38405;53.212;5.660;2022-08-19T14:42:51;7.60;;;5.60;;